Time;durP1;ratioP1;P1;durP2;ratioP2;P2;SDS_P1;SDS_P2;PMS_P1;PMS_P2;Temp;Humidity;BMP_temperature;BMP_pressure;BME280_temperature;BME280_humidity;BME280_pressure;Samples;Min_cycle;Max_cycle;Signal;HPM_P1;HPM_P2
2023/03/16 00:01:24;;;;;;;12.33;10.87;;;-0.30;99.90;;;0.26;100.00;98340.09;5238655;28;20755;-66
2023/03/16 00:03:58;;;;;;;11.87;10.70;;;-0.30;99.90;;;0.25;100.00;98349.25;5235583;28;20231;-65
2023/03/16 00:06:31;;;;;;;12.87;11.57;;;-0.30;99.90;;;0.30;100.00;98345.59;5231970;28;20198;-66
2023/03/16 00:09:04;;;;;;;12.53;11.33;;;-0.30;99.90;;;0.34;100.00;98342.66;5229770;28;20230;-65
2023/03/16 00:11:38;;;;;;;12.13;10.90;;;-0.30;99.90;;;0.19;100.00;98336.06;5240063;28;20234;-66
2023/03/16 00:14:11;;;;;;;14.43;11.80;;;-0.30;99.90;;;0.18;100.00;98341.81;5239224;28;20219;-65
2023/03/16 00:16:44;;;;;;;12.73;11.50;;;-0.40;99.90;;;0.15;100.00;98347.41;5242933;28;20199;-65
2023/03/16 00:19:18;;;;;;;13.40;12.10;;;-0.40;99.90;;;0.17;100.00;98348.47;5237825;28;20201;-65
2023/03/16 00:21:52;;;;;;;13.03;11.83;;;-0.30;99.90;;;0.16;100.00;98349.19;5240955;28;20290;-64
2023/03/16 00:24:25;;;;;;;13.30;11.87;;;-0.40;99.90;;;0.23;100.00;98345.72;5241616;28;20343;-65
2023/03/16 00:26:59;;;;;;;14.17;12.47;;;-0.30;99.90;;;0.23;100.00;98343.19;5239830;28;20223;-66
2023/03/16 00:29:33;;;;;;;15.13;13.43;;;-0.30;99.90;;;0.17;100.00;98340.03;5243553;28;20637;-66
2023/03/16 00:32:07;;;;;;;13.73;12.30;;;-0.40;99.90;;;0.17;100.00;98337.50;5238662;28;20197;-65
2023/03/16 00:34:42;;;;;;;14.47;13.03;;;-0.40;99.90;;;0.17;100.00;98350.06;5237129;28;20661;-65
2023/03/16 00:37:18;;;;;;;14.17;12.67;;;-0.40;99.90;;;0.18;100.00;98342.72;5236595;28;20697;-65
2023/03/16 00:39:54;;;;;;;14.37;12.87;;;-0.40;99.90;;;0.10;100.00;98347.66;5243168;28;20642;-65
2023/03/16 00:42:32;;;;;;;13.40;12.13;;;-0.40;99.90;;;0.16;100.00;98355.84;5235175;28;20301;-65
2023/03/16 00:45:08;;;;;;;14.60;13.00;;;-0.40;99.90;;;-0.08;100.00;98350.03;5243679;28;20204;-65
2023/03/16 00:47:41;;;;;;;13.87;12.50;;;-0.50;99.90;;;-0.06;100.00;98343.56;5233051;28;20246;-65
2023/03/16 00:50:16;;;;;;;15.60;13.27;;;-0.50;99.90;;;-0.05;100.00;98345.31;5240330;28;20313;-66
2023/03/16 00:52:52;;;;;;;14.93;13.40;;;-0.50;99.90;;;-0.03;100.00;98353.94;5236063;28;20831;-66
2023/03/16 00:55:25;;;;;;;14.97;13.47;;;-0.50;99.90;;;0.00;100.00;98343.31;5243416;28;20308;-63
2023/03/16 00:57:58;;;;;;;15.60;13.33;;;-0.50;99.90;;;0.04;100.00;98349.53;5234206;28;20199;-65
2023/03/16 01:00:32;;;;;;;14.83;13.30;;;-0.50;99.90;;;0.05;100.00;98353.81;5233992;28;20198;-65
2023/03/16 01:03:05;;;;;;;15.93;14.33;;;-0.50;99.90;;;-0.01;100.00;98347.41;5233586;28;20279;-66
2023/03/16 01:05:44;;;;;;;15.00;13.60;;;-0.50;99.90;;;0.00;100.00;98350.84;5236122;28;20216;-66
2023/03/16 01:08:17;;;;;;;16.00;14.40;;;-0.50;99.90;;;0.05;100.00;98349.69;5239144;28;20419;-66
2023/03/16 01:10:50;;;;;;;16.40;14.67;;;-0.50;99.90;;;0.04;100.00;98345.41;5236540;28;20232;-65
2023/03/16 01:13:23;;;;;;;16.60;14.90;;;-0.50;99.90;;;-0.07;100.00;98353.44;5231957;28;20215;-66
2023/03/16 01:15:56;;;;;;;16.70;14.87;;;-0.50;99.90;;;-0.01;100.00;98346.53;5246576;28;20297;-66
2023/03/16 01:18:33;;;;;;;16.63;14.17;;;-0.50;99.90;;;-0.01;100.00;98342.41;5243868;28;20291;-65
2023/03/16 01:21:12;;;;;;;16.73;15.20;;;-0.50;99.90;;;-0.06;100.00;98341.03;5234815;28;20221;-66
2023/03/16 01:23:45;;;;;;;16.90;14.67;;;-0.50;99.90;;;-0.12;100.00;98342.88;5234899;28;20222;-65
2023/03/16 01:26:19;;;;;;;17.53;15.63;;;-0.60;99.90;;;0.03;100.00;98340.19;5241293;28;20205;-64
2023/03/16 01:28:53;;;;;;;17.07;15.27;;;-0.50;99.90;;;-0.03;100.00;98346.38;5243813;28;20202;-66
2023/03/16 01:31:28;;;;;;;15.97;13.87;;;-0.50;99.90;;;0.05;100.00;98343.78;5239207;28;20232;-66
2023/03/16 01:34:02;;;;;;;17.87;15.50;;;-0.50;99.90;;;0.03;100.00;98347.75;5238603;28;20238;-66
2023/03/16 01:36:37;;;;;;;16.83;15.10;;;-0.50;99.90;;;0.09;100.00;98333.34;5236933;28;20722;-65
2023/03/16 01:39:11;;;;;;;17.97;16.03;;;-0.40;99.90;;;0.12;100.00;98341.19;5248425;28;20224;-66
2023/03/16 01:41:46;;;;;;;18.13;16.03;;;-0.40;99.90;;;0.05;100.00;98333.72;5229407;28;20233;-65
2023/03/16 01:44:29;;;;;;;17.43;15.67;;;-0.50;99.90;;;0.06;100.00;98331.38;5241645;28;20237;-66
2023/03/16 01:47:02;;;;;;;17.03;14.77;;;-0.50;99.90;;;-0.04;100.00;98329.50;5239857;28;20218;-66
2023/03/16 01:49:37;;;;;;;15.93;14.27;;;-0.60;99.90;;;-0.10;100.00;98325.47;5237887;28;20260;-65
2023/03/16 01:52:16;;;;;;;16.60;15.00;;;-0.60;99.90;;;-0.01;100.00;98319.78;5230806;28;20288;-66
2023/03/16 01:54:52;;;;;;;17.33;15.27;;;-0.60;99.90;;;0.03;100.00;98322.63;5232562;28;20237;-67
2023/03/16 01:57:31;;;;;;;16.60;15.00;;;-0.50;99.90;;;0.02;100.00;98326.75;5242071;28;20681;-65
2023/03/16 02:00:17;;;;;;;15.93;14.33;;;-0.50;99.90;;;-0.02;100.00;98315.50;5237808;28;20284;-66
2023/03/16 02:02:56;;;;;;;17.07;15.37;;;-0.60;99.90;;;-0.04;100.00;98321.09;5229972;28;20203;-65
2023/03/16 02:05:33;;;;;;;17.53;15.43;;;-0.60;99.90;;;-0.07;100.00;98316.63;5240945;28;20611;-65
2023/03/16 02:08:11;;;;;;;17.43;15.73;;;-0.60;99.90;;;-0.18;100.00;98328.78;5244036;28;20203;-65
2023/03/16 02:10:44;;;;;;;17.67;15.87;;;-0.70;99.90;;;-0.16;100.00;98312.28;5250025;28;20226;-66
2023/03/16 02:13:17;;;;;;;16.43;14.83;;;-0.70;99.90;;;-0.14;100.00;98320.84;5243203;28;20264;-65
2023/03/16 02:15:52;;;;;;;17.30;15.47;;;-0.70;99.90;;;-0.10;100.00;98323.84;5238235;28;20198;-65
2023/03/16 02:18:26;;;;;;;17.27;15.57;;;-0.60;99.90;;;-0.03;100.00;98326.28;5241194;28;20205;-66
2023/03/16 02:21:08;;;;;;;17.03;15.33;;;-0.60;99.90;;;-0.07;100.00;98326.69;5237528;28;20199;-65
2023/03/16 02:23:43;;;;;;;16.20;14.47;;;-0.60;99.90;;;-0.11;100.00;98319.56;5236700;28;20714;-65
2023/03/16 02:26:26;;;;;;;15.30;13.63;;;-0.60;99.90;;;-0.08;100.00;98322.41;5241709;28;20194;-66
2023/03/16 02:29:17;;;;;;;16.20;14.60;;;-0.70;99.90;;;-0.05;100.00;98316.81;5232500;28;20234;-66
2023/03/16 02:31:53;;;;;;;16.57;14.97;;;-0.60;99.90;;;-0.05;100.00;98317.69;5235527;28;20690;-65
2023/03/16 02:34:27;;;;;;;15.83;14.23;;;-0.60;99.90;;;0.04;100.00;98304.31;5238030;28;20276;-65
2023/03/16 02:37:01;;;;;;;17.10;15.30;;;-0.60;99.90;;;0.03;100.00;98305.94;5230896;28;20260;-65
2023/03/16 02:39:34;;;;;;;18.70;15.30;;;-0.50;99.90;;;-0.22;100.00;98302.47;5238647;28;20302;-65
2023/03/16 02:42:13;;;;;;;16.47;14.87;;;-0.70;99.90;;;-0.40;100.00;98298.00;5240356;28;20194;-65
2023/03/16 02:44:50;;;;;;;17.67;15.10;;;-0.80;99.90;;;-0.38;100.00;98289.91;5238902;28;20616;-65
2023/03/16 02:47:34;;;;;;;16.23;14.47;;;-0.90;99.90;;;-0.39;100.00;98302.31;5241344;28;20680;-64
2023/03/16 02:50:11;;;;;;;16.90;15.13;;;-0.90;99.90;;;-0.42;100.00;98300.38;5240122;28;20224;-64
2023/03/16 02:52:46;;;;;;;16.83;15.03;;;-0.90;99.90;;;-0.39;100.00;98298.19;5232256;28;20203;-66
2023/03/16 02:55:20;;;;;;;16.80;15.07;;;-0.80;99.90;;;-0.42;100.00;98299.50;5229154;28;20201;-66
2023/03/16 02:57:53;;;;;;;18.60;15.23;;;-0.90;99.90;;;-0.40;100.00;98303.03;5236554;28;20197;-65
2023/03/16 03:00:28;;;;;;;17.10;15.17;;;-0.90;99.90;;;-0.47;100.00;98291.47;5238336;28;20197;-64
2023/03/16 03:03:03;;;;;;;16.23;14.63;;;-0.90;99.90;;;-0.52;100.00;98303.50;5236356;28;20219;-66
2023/03/16 03:05:37;;;;;;;17.53;15.70;;;-0.90;99.90;;;-0.44;100.00;98300.94;5248022;28;20251;-66
2023/03/16 03:08:10;;;;;;;18.77;15.47;;;-0.90;99.90;;;-0.57;100.00;98297.13;5241438;28;20626;-66
2023/03/16 03:10:44;;;;;;;18.13;16.23;;;-1.00;99.90;;;-0.48;100.00;98298.09;5245735;28;20294;-65
2023/03/16 03:13:17;;;;;;;16.33;14.73;;;-0.90;99.90;;;-0.39;100.00;98292.28;5248182;28;20212;-65
2023/03/16 03:15:51;;;;;;;16.33;14.63;;;-0.90;99.90;;;-0.28;100.00;98291.78;5241840;28;20201;-65
2023/03/16 03:18:26;;;;;;;16.97;15.17;;;-0.80;99.90;;;-0.31;100.00;98288.97;5237006;28;20233;-66
2023/03/16 03:20:59;;;;;;;17.37;15.47;;;-0.80;99.90;;;-0.19;100.00;98290.25;5242357;28;20196;-65
2023/03/16 03:23:33;;;;;;;16.53;14.87;;;-0.70;99.90;;;-0.08;100.00;98286.34;5230951;28;20657;-65
2023/03/16 03:26:06;;;;;;;17.17;15.40;;;-0.70;99.90;;;-0.09;100.00;98289.56;5246910;28;20295;-67
2023/03/16 03:28:40;;;;;;;16.47;14.87;;;-0.70;99.90;;;-0.12;100.00;98282.59;5243233;28;20215;-67
2023/03/16 03:31:17;;;;;;;16.63;14.93;;;-0.70;99.90;;;-0.16;100.00;98282.13;5244837;28;20699;-67
2023/03/16 03:33:52;;;;;;;15.67;13.03;;;-0.80;99.90;;;-0.28;100.00;98290.16;5242276;28;20229;-67
2023/03/16 03:36:26;;;;;;;15.27;13.87;;;-0.80;99.90;;;-0.26;100.00;98290.31;5240753;28;20604;-62
2023/03/16 03:39:02;;;;;;;14.33;12.93;;;-0.90;99.90;;;-0.28;100.00;98286.75;5242337;28;20213;-67
2023/03/16 03:41:35;;;;;;;15.90;13.40;;;-0.90;99.90;;;-0.41;100.00;98272.00;5248114;28;20312;-65
2023/03/16 03:44:08;;;;;;;14.93;13.33;;;-1.00;99.90;;;-0.56;100.00;98268.78;5244597;28;20218;-66
2023/03/16 03:46:41;;;;;;;15.90;14.30;;;-1.10;99.90;;;-0.59;100.00;98275.09;5241570;28;20201;-66
2023/03/16 03:49:16;;;;;;;15.13;13.50;;;-1.10;99.90;;;-0.75;100.00;98262.53;5244036;28;20189;-65
2023/03/16 03:51:50;;;;;;;14.30;12.87;;;-1.20;99.90;;;-0.81;100.00;98270.28;5246584;28;20678;-64
2023/03/16 03:54:23;;;;;;;15.37;13.87;;;-1.20;99.90;;;-0.88;100.00;98282.03;5247732;28;20217;-66
2023/03/16 03:56:56;;;;;;;14.10;12.70;;;-1.30;99.90;;;-0.78;100.00;98274.75;5244080;28;20232;-65
2023/03/16 03:59:30;;;;;;;15.33;13.80;;;-1.20;99.90;;;-0.73;100.00;98279.53;5238901;28;20434;-66
2023/03/16 04:02:03;;;;;;;15.47;13.87;;;-1.20;99.90;;;-0.84;100.00;98269.97;5245480;28;20200;-66
2023/03/16 04:04:37;;;;;;;15.23;13.73;;;-1.30;99.90;;;-0.68;100.00;98262.47;5246160;28;20699;-64
2023/03/16 04:07:12;;;;;;;15.43;13.63;;;-1.20;99.90;;;-0.66;100.00;98255.09;5244714;28;20223;-67
2023/03/16 04:09:45;;;;;;;14.80;13.40;;;-1.20;99.90;;;-0.62;100.00;98260.59;5242762;28;20197;-66
2023/03/16 04:12:18;;;;;;;15.33;13.30;;;-1.20;99.90;;;-0.65;100.00;98254.38;5240195;28;20578;-66
2023/03/16 04:14:51;;;;;;;15.87;14.17;;;-1.20;99.90;;;-0.63;100.00;98253.81;5234311;28;20225;-66
2023/03/16 04:17:24;;;;;;;15.00;13.60;;;-1.20;99.90;;;-0.60;100.00;98249.13;5245937;28;20210;-67
2023/03/16 04:19:58;;;;;;;14.47;12.97;;;-1.10;99.90;;;-0.62;100.00;98247.16;5240632;28;20429;-67
2023/03/16 04:22:32;;;;;;;14.00;12.57;;;-1.20;99.90;;;-0.63;100.00;98243.78;5239599;28;20664;-64
2023/03/16 04:25:05;;;;;;;15.63;14.07;;;-1.20;99.90;;;-0.46;100.00;98248.94;5238724;28;20299;-67
2023/03/16 04:27:39;;;;;;;14.57;13.17;;;-1.10;99.90;;;-0.42;100.00;98254.28;5234236;28;21700;-66
2023/03/16 04:30:14;;;;;;;13.87;12.47;;;-1.00;99.90;;;-0.50;100.00;98250.97;5236246;28;20579;-67
2023/03/16 04:32:47;;;;;;;14.10;12.57;;;-1.10;99.90;;;-0.48;100.00;98242.88;5240935;28;20216;-65
2023/03/16 04:35:22;;;;;;;14.90;13.50;;;-1.00;99.90;;;-0.37;100.00;98238.97;5240689;28;20201;-67
2023/03/16 04:37:55;;;;;;;14.13;12.63;;;-1.00;99.90;;;-0.32;100.00;98241.97;5244695;28;20231;-67
2023/03/16 04:40:29;;;;;;;14.97;13.47;;;-1.00;99.90;;;-0.29;100.00;98239.75;5230928;28;20620;-66
2023/03/16 04:43:02;;;;;;;14.50;13.20;;;-0.90;99.90;;;-0.28;100.00;98236.53;5233580;28;20526;-66
2023/03/16 04:45:35;;;;;;;15.07;13.53;;;-0.90;99.90;;;-0.30;100.00;98238.00;5239556;28;20288;-67
2023/03/16 04:48:08;;;;;;;16.60;13.53;;;-0.90;99.90;;;-0.31;100.00;98244.66;5241651;28;20278;-66
2023/03/16 04:50:42;;;;;;;14.67;13.20;;;-0.90;99.90;;;-0.28;100.00;98241.56;5240688;28;20568;-66
2023/03/16 04:53:15;;;;;;;14.73;13.20;;;-0.90;99.90;;;-0.23;100.00;98240.41;5237039;28;20245;-64
2023/03/16 04:55:49;;;;;;;14.67;13.17;;;-0.80;99.90;;;-0.24;100.00;98238.63;5233701;28;20210;-66
2023/03/16 04:58:23;;;;;;;14.13;12.73;;;-0.80;99.90;;;-0.29;100.00;98235.63;5240945;28;20196;-67
2023/03/16 05:00:56;;;;;;;14.13;12.27;;;-0.90;99.90;;;-0.34;100.00;98236.78;5236859;28;20206;-67
2023/03/16 05:03:29;;;;;;;14.20;12.90;;;-1.00;99.90;;;-0.36;100.00;98237.34;5238463;28;20511;-67
2023/03/16 05:06:04;;;;;;;13.57;12.27;;;-1.10;99.90;;;-0.33;100.00;98237.69;5238438;28;20654;-67
2023/03/16 05:08:37;;;;;;;13.23;11.97;;;-1.00;99.90;;;-0.32;100.00;98220.25;5238609;28;20205;-67
2023/03/16 05:11:10;;;;;;;14.17;12.77;;;-1.10;99.90;;;-0.34;100.00;98225.88;5240508;28;20303;-67
2023/03/16 05:13:43;;;;;;;13.40;11.97;;;-1.00;99.90;;;-0.33;100.00;98230.16;5242473;28;20743;-66
2023/03/16 05:16:16;;;;;;;14.13;12.63;;;-1.00;99.90;;;-0.32;100.00;98221.88;5237862;28;20206;-66
2023/03/16 05:18:51;;;;;;;13.70;12.17;;;-1.00;99.90;;;-0.34;100.00;98233.41;5233139;28;20316;-66
2023/03/16 05:21:26;;;;;;;14.57;13.07;;;-1.00;99.90;;;-0.37;100.00;98228.03;5231268;28;20200;-67
2023/03/16 05:23:59;;;;;;;15.33;13.17;;;-1.00;99.90;;;-0.49;100.00;98235.16;5233578;28;20331;-66
2023/03/16 05:26:32;;;;;;;14.90;13.43;;;-1.10;99.90;;;-0.53;100.00;98233.06;5239145;28;20303;-66
2023/03/16 05:29:05;;;;;;;14.73;13.37;;;-1.10;99.90;;;-0.53;100.00;98236.47;5238075;28;20761;-66
2023/03/16 05:31:38;;;;;;;14.90;13.33;;;-1.10;99.90;;;-0.52;100.00;98229.81;5237239;28;20217;-67
2023/03/16 05:34:11;;;;;;;15.50;13.90;;;-1.10;99.90;;;-0.43;100.00;98229.91;5239029;28;20632;-67
2023/03/16 05:36:46;;;;;;;16.37;14.67;;;-1.00;99.90;;;-0.36;100.00;98233.22;5246479;28;20224;-67
2023/03/16 05:39:19;;;;;;;16.10;14.40;;;-0.90;99.90;;;-0.35;100.00;98221.56;5231130;28;20404;-66
2023/03/16 05:41:53;;;;;;;15.67;13.87;;;-0.90;99.90;;;-0.34;100.00;98220.84;5242013;28;20200;-66
2023/03/16 05:44:26;;;;;;;15.50;13.90;;;-0.90;99.90;;;-0.23;100.00;98225.31;5246156;28;20220;-66
2023/03/16 05:46:59;;;;;;;15.40;13.80;;;-0.80;99.90;;;-0.12;100.00;98226.44;5236954;28;20301;-65
2023/03/16 05:49:33;;;;;;;16.03;14.13;;;-0.80;99.90;;;-0.12;100.00;98239.00;5234798;28;20201;-67
2023/03/16 05:52:07;;;;;;;15.23;13.73;;;-0.80;99.90;;;-0.12;100.00;98232.34;5238054;28;20590;-67
2023/03/16 05:54:41;;;;;;;14.13;12.73;;;-0.70;99.90;;;-0.15;100.00;98234.56;5236134;28;20224;-67
2023/03/16 05:57:14;;;;;;;15.43;12.80;;;-0.80;99.90;;;-0.07;100.00;98223.69;5233105;28;20712;-67
2023/03/16 05:59:49;;;;;;;12.90;11.67;;;-0.70;99.90;;;-0.05;100.00;98229.75;5238887;28;20206;-66
2023/03/16 06:02:22;;;;;;;14.23;12.40;;;-0.70;99.90;;;-0.01;100.00;98234.34;5236535;28;20287;-66
2023/03/16 06:04:55;;;;;;;15.47;12.63;;;-0.70;99.90;;;0.05;100.00;98236.63;5233363;28;20263;-67
2023/03/16 06:07:30;;;;;;;15.23;13.20;;;-0.60;99.90;;;0.10;100.00;98234.59;5243188;28;20222;-66
2023/03/16 06:10:04;;;;;;;14.77;13.27;;;-0.60;99.90;;;0.13;100.00;98229.88;5230249;28;20657;-66
2023/03/16 06:12:38;;;;;;;15.13;13.33;;;-0.60;99.90;;;0.15;100.00;98229.31;5242983;28;20598;-66
2023/03/16 06:15:12;;;;;;;13.93;12.53;;;-0.60;99.90;;;0.17;100.00;98222.81;5246452;28;20199;-67
2023/03/16 06:17:45;;;;;;;14.43;12.90;;;-0.60;99.90;;;0.17;100.00;98221.91;5237302;28;20206;-67
2023/03/16 06:20:18;;;;;;;14.07;12.73;;;-0.50;99.90;;;0.28;100.00;98228.03;5240826;28;20195;-66
2023/03/16 06:22:53;;;;;;;14.67;13.17;;;-0.40;99.90;;;0.43;100.00;98224.59;5234872;28;20198;-63
2023/03/16 06:25:26;;;;;;;14.60;13.10;;;-0.30;99.90;;;0.53;100.00;98222.25;5236485;28;20530;-66
2023/03/16 06:27:59;;;;;;;15.27;13.67;;;-0.30;99.90;;;0.74;100.00;98228.53;5242702;28;20209;-67
2023/03/16 06:30:32;;;;;;;15.37;13.97;;;-0.10;99.90;;;1.00;100.00;98222.72;5239483;28;20595;-65
2023/03/16 06:33:05;;;;;;;16.13;14.53;;;0.20;99.90;;;1.34;100.00;98220.28;5233725;28;20728;-67
2023/03/16 06:35:38;;;;;;;14.07;12.57;;;0.50;99.90;;;1.71;98.93;98221.31;5241403;28;20265;-66
2023/03/16 06:38:13;;;;;;;13.27;11.97;;;0.70;99.90;;;1.92;98.20;98221.63;5235712;28;20196;-67
2023/03/16 06:40:50;;;;;;;13.53;12.23;;;0.90;99.90;;;2.13;96.47;98222.78;5241229;28;21344;-67
2023/03/16 06:43:23;;;;;;;11.07;10.07;;;0.90;99.90;;;2.34;92.69;98216.34;5238069;28;20258;-67
2023/03/16 06:45:57;;;;;;;13.73;12.43;;;1.00;99.90;;;2.37;93.62;98220.03;5231666;28;20585;-64
2023/03/16 06:48:30;;;;;;;12.30;11.30;;;1.10;99.90;;;2.58;90.19;98216.13;5238513;28;20662;-67
2023/03/16 06:51:06;;;;;;;11.97;10.87;;;1.20;99.90;;;2.86;90.73;98211.09;5231952;28;20200;-66
2023/03/16 06:53:40;;;;;;;10.13;9.23;;;1.20;99.90;;;3.23;91.20;98220.41;5235688;28;20225;-65
2023/03/16 06:56:13;;;;;;;11.67;10.63;;;1.50;99.90;;;3.32;89.95;98202.66;5234532;28;20209;-65
2023/03/16 06:58:46;;;;;;;10.70;9.70;;;1.50;99.90;;;3.64;88.34;98213.16;5242176;28;20574;-67
2023/03/16 07:01:20;;;;;;;11.67;10.67;;;1.80;99.90;;;3.92;85.74;98208.91;5235297;28;20204;-64
2023/03/16 07:03:53;;;;;;;10.77;9.87;;;2.00;99.90;;;4.19;85.29;98217.13;5243729;28;20227;-66
2023/03/16 07:06:27;;;;;;;10.10;9.20;;;2.20;99.90;;;4.16;83.63;98214.34;5240537;28;20203;-66
2023/03/16 07:09:03;;;;;;;10.00;9.10;;;2.50;99.90;;;4.17;84.83;98223.69;5235745;28;20305;-67
2023/03/16 07:11:36;;;;;;;11.77;10.03;;;2.60;99.90;;;4.20;85.55;98214.72;5239714;28;20237;-67
2023/03/16 07:14:10;;;;;;;10.57;9.67;;;2.80;99.90;;;4.29;85.42;98220.59;5229143;28;20703;-67
2023/03/16 07:16:43;;;;;;;14.77;13.30;;;3.10;99.90;;;4.48;86.11;98215.47;5232692;28;20217;-66
2023/03/16 07:19:16;;;;;;;11.63;10.63;;;3.20;99.90;;;4.48;85.93;98218.00;5233067;28;20190;-66
2023/03/16 07:21:50;;;;;;;13.23;12.03;;;3.20;99.90;;;4.66;86.61;98213.59;5233565;28;20290;-66
2023/03/16 07:24:24;;;;;;;12.37;11.27;;;3.30;99.90;;;4.81;87.37;98219.13;5239440;28;20236;-67
2023/03/16 07:26:57;;;;;;;11.10;10.10;;;3.60;99.90;;;5.15;86.33;98212.72;5239241;28;20620;-67
2023/03/16 07:29:31;;;;;;;13.40;12.10;;;4.00;99.90;;;5.45;85.57;98212.59;5240906;28;20302;-66
2023/03/16 07:32:04;;;;;;;14.23;12.90;;;4.40;99.90;;;5.54;84.88;98214.22;5234234;28;20741;-64
2023/03/16 07:34:37;;;;;;;14.40;13.13;;;4.60;99.90;;;5.76;82.32;98221.94;5236727;28;20236;-65
2023/03/16 07:37:11;;;;;;;14.40;13.10;;;4.80;99.90;;;6.04;82.87;98214.06;5229183;28;20212;-67
2023/03/16 07:39:45;;;;;;;13.73;12.47;;;4.90;99.90;;;6.03;80.84;98213.13;5239854;28;20251;-67
2023/03/16 07:42:19;;;;;;;13.73;12.50;;;4.90;99.90;;;6.14;80.58;98214.00;5235372;28;20215;-66
2023/03/16 07:44:52;;;;;;;13.70;12.50;;;5.20;99.90;;;6.25;79.35;98215.75;5231047;28;20221;-67
2023/03/16 07:47:25;;;;;;;15.13;13.60;;;5.20;99.90;;;6.41;78.15;98217.84;5240968;28;20215;-66
2023/03/16 07:49:58;;;;;;;13.87;12.63;;;5.30;99.90;;;6.47;80.22;98215.78;5251702;28;20208;-66
2023/03/16 07:52:32;;;;;;;14.43;13.03;;;5.30;99.90;;;6.50;78.26;98213.50;5244866;28;20211;-66
2023/03/16 07:55:10;;;;;;;13.67;12.40;;;5.50;99.90;;;6.79;77.54;98211.44;5242869;28;20200;-65
2023/03/16 07:57:46;;;;;;;14.20;12.80;;;5.80;99.90;;;6.97;77.54;98208.66;5239001;28;20196;-65
2023/03/16 08:00:22;;;;;;;15.40;14.00;;;6.10;99.90;;;6.99;73.64;98202.03;5245550;28;20200;-66
2023/03/16 08:02:56;;;;;;;13.53;12.23;;;6.20;99.90;;;7.14;74.73;98206.50;5242140;28;20651;-67
2023/03/16 08:05:31;;;;;;;12.87;11.77;;;6.20;99.90;;;7.18;71.66;98206.88;5231589;28;20205;-63
2023/03/16 08:08:04;;;;;;;12.50;11.37;;;6.30;99.90;;;7.13;73.86;98215.81;5240821;28;20196;-65
2023/03/16 08:10:39;;;;;;;13.40;12.20;;;6.10;99.90;;;7.30;74.79;98213.66;5247604;28;20277;-65
2023/03/16 08:13:12;;;;;;;12.70;11.43;;;6.40;99.90;;;7.35;73.40;98212.31;5242955;28;20307;-66
2023/03/16 08:15:54;;;;;;;12.97;11.67;;;6.40;99.90;;;7.30;72.61;98214.53;5241597;28;20203;-65
2023/03/16 08:18:29;;;;;;;11.90;10.73;;;6.40;99.90;;;7.28;71.86;98215.19;5240551;28;20707;-66
2023/03/16 08:21:03;;;;;;;11.90;10.80;;;6.30;99.90;;;7.58;71.89;98207.31;5241052;28;20221;-65
2023/03/16 08:23:36;;;;;;;11.97;10.87;;;6.70;99.90;;;7.81;71.12;98215.72;5244460;28;20657;-67
2023/03/16 08:26:10;;;;;;;12.50;11.40;;;7.00;99.90;;;7.99;68.45;98214.53;5245371;28;20231;-66
2023/03/16 08:28:45;;;;;;;12.43;11.23;;;7.20;99.90;;;7.54;70.23;98210.38;5238185;28;20207;-66
2023/03/16 08:31:20;;;;;;;11.30;10.20;;;6.90;99.90;;;7.74;71.45;98213.53;5240848;28;20235;-65
2023/03/16 08:33:53;;;;;;;12.20;11.00;;;7.00;99.90;;;8.06;71.62;98213.31;5241245;28;20277;-66
2023/03/16 08:36:27;;;;;;;11.53;10.47;;;7.30;99.90;;;8.32;67.19;98217.72;5241314;28;20215;-67
2023/03/16 08:39:00;;;;;;;10.73;9.80;;;7.70;99.90;;;8.29;67.73;98210.75;5235337;28;20441;-66
2023/03/16 08:41:41;;;;;;;11.13;9.73;;;7.60;99.90;;;8.13;66.74;98216.41;5238362;28;20236;-64
2023/03/16 08:44:14;;;;;;;10.57;9.57;;;7.50;99.90;;;8.12;65.76;98214.63;5233572;28;20593;-67
2023/03/16 08:46:47;;;;;;;10.33;9.33;;;7.50;99.90;;;8.25;65.19;98207.91;5235930;28;20201;-66
2023/03/16 08:49:21;;;;;;;10.23;9.33;;;7.80;99.90;;;8.01;65.64;98204.44;5235420;28;20204;-67
2023/03/16 08:51:54;;;;;;;10.83;9.77;;;7.70;99.90;;;8.10;65.94;98211.13;5241203;28;20200;-65
2023/03/16 08:54:27;;;;;;;10.27;9.33;;;7.70;99.90;;;8.11;65.96;98207.78;5249307;28;20224;-67
2023/03/16 08:57:01;;;;;;;9.47;8.60;;;7.70;99.90;;;8.16;65.67;98217.44;5241302;28;20200;-64
2023/03/16 08:59:35;;;;;;;10.47;9.50;;;7.70;99.90;;;8.21;67.48;98201.72;5242760;28;20299;-64
2023/03/16 09:02:12;;;;;;;10.40;9.30;;;7.80;99.90;;;8.20;64.93;98201.59;5236143;28;20202;-64
2023/03/16 09:04:45;;;;;;;9.63;8.83;;;7.90;99.90;;;8.04;64.27;98210.69;5241121;28;20584;-62
2023/03/16 09:07:19;;;;;;;9.07;8.37;;;7.60;99.90;;;8.14;64.91;98202.03;5239819;28;20239;-63
2023/03/16 09:09:52;;;;;;;10.10;9.20;;;7.60;99.90;;;8.08;66.50;98202.47;5245628;28;20216;-67
2023/03/16 09:12:26;;;;;;;10.43;9.43;;;7.60;99.90;;;8.40;66.16;98187.75;5234371;28;20197;-67
2023/03/16 09:15:00;;;;;;;9.50;8.70;;;7.90;99.90;;;8.74;64.06;98181.69;5234840;28;20552;-66
2023/03/16 09:17:34;;;;;;;10.23;9.10;;;8.40;99.90;;;8.48;62.62;98172.22;5238210;28;20207;-66
2023/03/16 09:20:10;;;;;;;8.97;8.17;;;8.10;99.90;;;8.76;62.12;98171.63;5241934;28;20579;-66
2023/03/16 09:23:02;;;;;;;9.30;8.40;;;8.30;99.90;;;8.74;61.88;98175.72;5242880;28;20220;-65
2023/03/16 09:25:35;;;;;;;8.50;7.70;;;8.50;99.90;;;8.50;63.51;98185.97;5241046;28;20303;-67
2023/03/16 09:28:10;;;;;;;8.53;7.73;;;8.10;99.90;;;8.39;63.18;98176.69;5240204;28;20610;-66
2023/03/16 09:30:43;;;;;;;8.70;7.93;;;7.90;99.90;;;8.40;62.17;98175.91;5239542;28;20287;-67
2023/03/16 09:33:16;;;;;;;8.60;7.80;;;7.90;99.90;;;8.74;61.82;98175.72;5240735;28;20232;-67
2023/03/16 09:35:50;;;;;;;8.07;7.47;;;8.30;99.90;;;8.80;61.77;98173.56;5234038;28;20399;-67
2023/03/16 09:38:25;;;;;;;8.13;7.47;;;8.50;99.90;;;8.86;61.98;98173.13;5241211;28;20618;-67
2023/03/16 09:41:00;;;;;;;8.43;7.77;;;8.50;99.90;;;8.84;61.57;98162.81;5241193;28;20597;-67
2023/03/16 09:43:59;;;;;;;8.50;7.60;;;8.60;99.90;;;8.91;58.74;98157.34;5243017;28;20228;-66
2023/03/16 09:46:37;;;;;;;8.33;7.63;;;8.70;99.90;;;9.03;59.93;98163.28;5234795;28;20266;-66
2023/03/16 09:49:11;;;;;;;7.47;6.87;;;8.80;99.90;;;9.15;59.02;98162.34;5240315;28;20736;-67
2023/03/16 09:51:52;;;;;;;8.13;7.53;;;8.80;99.90;;;9.33;60.30;98155.03;5237761;28;20502;-63
2023/03/16 09:54:34;;;;;;;8.33;7.63;;;8.80;99.90;;;9.45;59.39;98159.28;5234055;28;20236;-66
2023/03/16 09:57:21;;;;;;;8.40;7.60;;;8.90;99.90;;;9.54;57.44;98153.91;5240067;28;20224;-67
2023/03/16 10:00:01;;;;;;;7.53;6.93;;;9.10;99.90;;;9.57;57.97;98143.03;5236606;28;20200;-66
2023/03/16 10:02:57;;;;;;;7.13;6.47;;;9.10;99.90;;;9.77;58.66;98140.09;5236125;28;20224;-67
2023/03/16 10:05:31;;;;;;;6.30;5.83;;;9.20;99.90;;;9.76;56.40;98135.78;5234796;28;20192;-64
2023/03/16 10:08:13;;;;;;;7.07;6.40;;;9.30;99.90;;;9.68;57.58;98135.28;5240303;28;20617;-64
2023/03/16 10:11:09;;;;;;;6.90;6.40;;;9.10;99.90;;;9.81;58.41;98119.06;5238759;28;20203;-64
2023/03/16 10:13:48;;;;;;;7.00;6.50;;;9.20;99.90;;;10.11;56.06;98129.47;5238259;28;20220;-62
2023/03/16 10:16:30;;;;;;;7.20;6.60;;;9.50;99.60;;;10.03;54.64;98120.44;5242953;28;20204;-64
2023/03/16 10:19:14;;;;;;;7.30;6.57;;;9.50;98.60;;;9.92;55.80;98117.22;5234966;28;20754;-65
2023/03/16 10:21:48;;;;;;;7.80;7.10;;;9.40;99.30;;;9.93;55.18;98119.88;5232892;28;20270;-65
2023/03/16 10:24:37;;;;;;;6.70;6.10;;;9.50;98.80;;;9.75;56.32;98112.69;5239816;28;20220;-65
2023/03/16 10:27:20;;;;;;;7.15;6.50;;;9.40;98.60;;;9.81;56.83;98115.63;5236401;28;20232;-64
2023/03/16 10:29:53;;;;;;;7.20;6.60;;;9.30;99.40;;;9.86;56.12;98112.59;5230545;28;20215;-64
2023/03/16 10:32:34;;;;;;;6.28;5.68;;;9.30;99.70;;;9.96;55.11;98110.63;5238509;28;20571;-64
2023/03/16 10:35:22;;;;;;;6.35;5.75;;;9.40;98.50;;;9.97;53.20;98117.50;5239927;28;20598;-64
2023/03/16 10:37:57;;;;;;;6.37;5.87;;;9.60;97.20;;;9.98;53.92;98117.59;5236194;28;20200;-64
2023/03/16 10:40:32;;;;;;;6.60;6.00;;;9.80;97.10;;;9.69;54.16;98113.19;5239621;28;20251;-64
2023/03/16 10:43:08;;;;;;;6.23;5.63;;;9.50;97.20;;;9.66;55.31;98118.09;5234846;28;20247;-64